Time;durP1;ratioP1;P1;durP2;ratioP2;P2;SDS_P1;SDS_P2;PMS_P1;PMS_P2;Temp;Humidity;BMP_temperature;BMP_pressure;BME280_temperature;BME280_humidity;BME280_pressure;Samples;Min_cycle;Max_cycle;Signal;HPM_P1;HPM_P2
2022/09/05 00:00:09;;;;;;;22.17;20.77;;;16.50;99.90;;;;;;6084813;23;20032;-76
2022/09/05 00:02:55;;;;;;;22.63;21.20;;;16.50;99.90;;;;;;6079096;23;20039;-74
2022/09/05 00:05:59;;;;;;;22.35;20.67;;;16.50;99.90;;;;;;6088897;23;20036;-75
2022/09/05 00:09:11;;;;;;;22.10;20.80;;;16.50;99.90;;;;;;6089587;23;20047;-74
2022/09/05 00:11:48;;;;;;;22.27;20.88;;;16.40;99.90;;;;;;6070596;23;20044;-73
2022/09/05 00:14:36;;;;;;;22.08;20.70;;;16.30;99.90;;;;;;6059660;23;20528;-73
2022/09/05 00:17:52;;;;;;;21.77;20.38;;;16.30;99.90;;;;;;6067775;23;20074;-76
2022/09/05 00:20:48;;;;;;;21.60;20.20;;;16.40;99.90;;;;;;6057221;23;20111;-74
2022/09/05 00:24:07;;;;;;;22.73;21.00;;;16.40;99.90;;;;;;6064086;23;20028;-74
2022/09/05 00:26:54;;;;;;;22.75;21.08;;;16.30;99.90;;;;;;6102009;23;20433;-74
2022/09/05 00:29:24;;;;;;;22.38;20.60;;;16.30;99.90;;;;;;6060871;23;20154;-74
2022/09/05 00:32:51;;;;;;;22.05;20.65;;;16.40;99.90;;;;;;6054580;23;20039;-75
2022/09/05 00:35:36;;;;;;;22.00;20.60;;;16.50;99.90;;;;;;6057923;23;20036;-73
2022/09/05 00:38:16;;;;;;;21.55;20.25;;;16.50;99.90;;;;;;6054251;23;20544;-73
2022/09/05 00:40:57;;;;;;;21.83;20.52;;;16.50;99.90;;;;;;6049465;23;20028;-73
2022/09/05 00:43:29;;;;;;;21.92;20.60;;;16.50;99.90;;;;;;6061969;23;20036;-73
2022/09/05 00:46:02;;;;;;;21.70;20.30;;;16.40;99.90;;;;;;6100244;23;20082;-72
2022/09/05 00:48:42;;;;;;;21.52;20.23;;;16.50;99.90;;;;;;6060200;23;20033;-73
2022/09/05 00:51:36;;;;;;;22.25;20.85;;;16.50;99.90;;;;;;6060939;23;20036;-75
2022/09/05 00:54:17;;;;;;;21.80;20.55;;;16.50;99.90;;;;;;6055427;23;20036;-76
2022/09/05 00:57:01;;;;;;;22.08;20.70;;;16.40;99.90;;;;;;6058411;23;20107;-74
2022/09/05 00:59:50;;;;;;;22.02;20.63;;;16.40;99.90;;;;;;6058584;23;20028;-74
2022/09/05 01:02:54;;;;;;;22.63;21.23;;;16.40;99.90;;;;;;6101967;23;20051;-75
2022/09/05 01:05:50;;;;;;;21.70;20.40;;;16.50;99.90;;;;;;6033432;23;20337;-75
2022/09/05 01:08:20;;;;;;;22.13;20.40;;;16.50;99.90;;;;;;6006255;23;20516;-75
2022/09/05 01:10:54;;;;;;;21.25;19.95;;;16.50;99.90;;;;;;6084105;23;20094;-72
2022/09/05 01:13:45;;;;;;;21.88;20.48;;;16.60;99.90;;;;;;5832403;22;20322;-78
2022/09/05 01:16:27;;;;;;;21.00;19.80;;;16.60;99.90;;;;;;5041630;28;20099;-76
2022/09/05 01:19:22;;;;;;;21.10;19.90;;;16.60;99.90;;;;;;5043252;28;20048;-76
2022/09/05 01:22:34;;;;;;;22.38;20.73;;;16.60;99.90;;;;;;5040140;28;20045;-76
2022/09/05 01:25:39;;;;;;;21.88;20.48;;;16.70;99.90;;;;;;5028744;28;20076;-78
2022/09/05 01:28:12;;;;;;;22.10;20.75;;;16.60;99.90;;;;;;5042991;28;20045;-75
2022/09/05 01:31:15;;;;;;;21.92;20.42;;;16.70;99.90;;;;;;5041512;28;20065;-78
2022/09/05 01:34:08;;;;;;;21.30;20.15;;;16.60;99.90;;;;;;5023173;28;20075;-75
2022/09/05 01:36:46;;;;;;;20.63;19.33;;;16.60;99.90;;;;;;5041966;28;20138;-76
2022/09/05 01:39:31;;;;;;;19.77;18.67;;;16.70;99.90;;;;;;5046325;28;20048;-76
2022/09/05 01:42:44;;;;;;;20.73;19.42;;;16.60;99.90;;;;;;5043792;28;20102;-77
2022/09/05 01:45:28;;;;;;;20.20;19.08;;;16.40;99.90;;;;;;5018621;28;20060;-78
2022/09/05 01:48:29;;;;;;;19.55;18.30;;;16.40;99.90;;;;;;5043168;28;20055;-75
2022/09/05 01:51:27;;;;;;;20.33;19.23;;;16.40;99.90;;;;;;5035300;28;20044;-78
2022/09/05 01:54:09;;;;;;;19.90;18.80;;;16.30;99.90;;;;;;5033820;28;20634;-77
2022/09/05 01:56:58;;;;;;;19.55;18.48;;;16.20;99.90;;;;;;5017429;28;20076;-77
2022/09/05 01:59:50;;;;;;;19.60;18.50;;;16.30;99.90;;;;;;5028310;28;20436;-77
2022/09/05 02:02:58;;;;;;;20.23;18.98;;;16.20;99.90;;;;;;5034386;28;20047;-78
2022/09/05 02:05:58;;;;;;;20.05;18.95;;;16.30;99.90;;;;;;5037040;28;20041;-76
2022/09/05 02:08:52;;;;;;;20.23;19.08;;;16.30;99.90;;;;;;5016265;28;20046;-76
2022/09/05 02:11:50;;;;;;;21.00;19.80;;;16.20;99.90;;;;;;5031438;28;20709;-76
2022/09/05 02:14:41;;;;;;;20.90;19.58;;;16.10;99.90;;;;;;5038763;28;20067;-76
2022/09/05 02:17:39;;;;;;;21.15;19.95;;;16.20;99.90;;;;;;5018301;28;20065;-77
2022/09/05 02:20:42;;;;;;;20.65;19.45;;;16.20;99.90;;;;;;5027844;28;20280;-76
2022/09/05 02:23:30;;;;;;;20.35;19.15;;;16.10;99.90;;;;;;5033094;28;20049;-75
2022/09/05 02:26:30;;;;;;;19.45;18.35;;;16.30;99.90;;;;;;5035277;28;20064;-76
2022/09/05 02:29:24;;;;;;;19.98;18.88;;;16.10;99.90;;;;;;5035083;28;20373;-76
2022/09/05 02:32:07;;;;;;;20.00;18.90;;;16.00;99.90;;;;;;5013834;28;20121;-76
2022/09/05 02:34:49;;;;;;;19.63;18.52;;;16.00;99.90;;;;;;5016804;28;20037;-76
2022/09/05 02:37:22;;;;;;;20.70;19.40;;;16.10;99.90;;;;;;5039077;28;20049;-76
2022/09/05 02:40:22;;;;;;;20.75;19.55;;;16.00;99.90;;;;;;5029109;28;20060;-76
2022/09/05 02:43:17;;;;;;;21.27;20.00;;;15.90;99.90;;;;;;5019651;28;20061;-75
2022/09/05 02:46:13;;;;;;;20.85;19.55;;;15.80;99.90;;;;;;5037136;28;20170;-76
2022/09/05 02:49:04;;;;;;;19.40;18.30;;;15.70;99.90;;;;;;5037590;28;20052;-76
2022/09/05 02:52:04;;;;;;;20.17;18.77;;;15.80;99.90;;;;;;5017207;28;20063;-75
2022/09/05 02:54:52;;;;;;;20.15;18.88;;;15.80;99.90;;;;;;5027501;28;20045;-76
2022/09/05 02:57:52;;;;;;;20.42;19.08;;;15.80;99.90;;;;;;5036161;28;20515;-75
2022/09/05 03:00:48;;;;;;;20.92;19.67;;;15.80;99.90;;;;;;5036349;28;20052;-76
2022/09/05 03:03:43;;;;;;;20.73;19.45;;;15.80;99.90;;;;;;5024356;28;20053;-76
2022/09/05 03:06:15;;;;;;;21.38;19.85;;;15.90;99.90;;;;;;5036497;28;20040;-76
2022/09/05 03:09:18;;;;;;;20.77;19.38;;;16.10;99.90;;;;;;5033849;28;20049;-76
2022/09/05 03:12:18;;;;;;;21.10;19.77;;;16.20;99.90;;;;;;5032496;28;20094;-78
2022/09/05 03:15:07;;;;;;;20.52;19.23;;;16.20;99.90;;;;;;5033550;28;20100;-76
2022/09/05 03:18:24;;;;;;;21.60;20.30;;;16.20;99.90;;;;;;5036174;28;20491;-78
2022/09/05 03:21:28;;;;;;;21.05;19.75;;;16.10;99.90;;;;;;5030207;28;20045;-75
2022/09/05 03:24:34;;;;;;;20.92;19.73;;;16.00;99.90;;;;;;5057338;28;20037;-77
2022/09/05 03:27:03;;;;;;;21.10;19.67;;;16.10;99.90;;;;;;5049777;28;20048;-76
2022/09/05 03:29:48;;;;;;;21.77;20.10;;;16.00;99.90;;;;;;5041101;28;20071;-75
2022/09/05 03:32:47;;;;;;;20.98;19.67;;;15.80;99.90;;;;;;5034643;28;20434;-76
2022/09/05 03:35:50;;;;;;;20.65;19.40;;;15.70;99.90;;;;;;5030053;28;20053;-76
2022/09/05 03:39:01;;;;;;;19.92;18.83;;;15.80;99.90;;;;;;5033699;28;20056;-75
2022/09/05 03:42:05;;;;;;;20.02;18.73;;;15.70;99.90;;;;;;5029413;28;20044;-76
2022/09/05 03:45:02;;;;;;;20.20;18.88;;;15.60;99.90;;;;;;5038480;28;20051;-78
2022/09/05 03:47:50;;;;;;;21.55;20.13;;;15.60;99.90;;;;;;5037053;28;20565;-77
2022/09/05 03:50:48;;;;;;;20.48;19.25;;;15.60;99.90;;;;;;5035756;28;20515;-77
2022/09/05 03:53:50;;;;;;;20.55;19.35;;;15.50;99.90;;;;;;5038451;28;20059;-77
2022/09/05 03:57:07;;;;;;;21.95;20.35;;;15.40;99.90;;;;;;5038492;28;20079;-77
2022/09/05 04:00:21;;;;;;;21.70;20.30;;;15.30;99.90;;;;;;5022802;28;20037;-77
2022/09/05 04:02:57;;;;;;;21.92;20.63;;;15.30;99.90;;;;;;5061325;28;20073;-77
2022/09/05 04:05:49;;;;;;;21.90;20.35;;;15.20;99.90;;;;;;5032430;28;20034;-77
2022/09/05 04:08:49;;;;;;;21.88;20.42;;;15.00;99.90;;;;;;5034565;28;20044;-77
2022/09/05 04:11:32;;;;;;;21.63;20.30;;;14.90;99.90;;;;;;5033013;28;20041;-77
2022/09/05 04:14:04;;;;;;;23.35;21.48;;;14.90;99.90;;;;;;5018420;28;20057;-77
2022/09/05 04:17:02;;;;;;;23.15;21.50;;;14.80;99.90;;;;;;5031796;28;20071;-78
2022/09/05 04:19:54;;;;;;;22.60;21.10;;;14.80;99.90;;;;;;5033130;28;20663;-77
2022/09/05 04:23:02;;;;;;;22.80;21.30;;;14.70;99.90;;;;;;5022176;28;20049;-77
2022/09/05 04:26:03;;;;;;;22.60;21.10;;;14.70;99.90;;;;;;5028509;28;20126;-77
2022/09/05 04:29:19;;;;;;;22.40;21.00;;;14.70;99.90;;;;;;5021353;28;20076;-78
2022/09/05 04:32:00;;;;;;;21.33;20.02;;;14.70;99.90;;;;;;5004970;28;20460;-78
2022/09/05 04:34:57;;;;;;;22.92;21.33;;;14.70;99.90;;;;;;5035255;28;20048;-78
2022/09/05 04:37:46;;;;;;;23.27;20.80;;;14.60;99.90;;;;;;5034460;28;20068;-77
2022/09/05 04:40:48;;;;;;;21.27;19.88;;;14.60;99.90;;;;;;5020419;28;20048;-78
2022/09/05 04:43:42;;;;;;;20.27;18.90;;;14.70;99.90;;;;;;5030980;28;20041;-77
2022/09/05 04:46:24;;;;;;;19.77;18.58;;;14.80;99.90;;;;;;5035392;28;20068;-77
2022/09/05 04:49:12;;;;;;;20.42;19.17;;;14.70;99.90;;;;;;5037411;28;20487;-77
2022/09/05 04:51:55;;;;;;;21.58;20.02;;;14.60;99.90;;;;;;5048852;28;20138;-78
2022/09/05 04:54:32;;;;;;;21.23;19.93;;;14.70;99.90;;;;;;5035753;28;20068;-78
2022/09/05 04:57:12;;;;;;;22.80;21.10;;;14.70;99.90;;;;;;5033194;28;20091;-77
2022/09/05 05:00:06;;;;;;;22.48;20.83;;;14.80;99.90;;;;;;5045768;28;20053;-77
2022/09/05 05:02:56;;;;;;;22.67;21.25;;;14.90;99.90;;;;;;5033062;28;20476;-77
2022/09/05 05:05:48;;;;;;;20.30;19.08;;;15.10;99.90;;;;;;5032573;28;20585;-77
2022/09/05 05:08:58;;;;;;;21.33;19.83;;;15.20;99.90;;;;;;5034076;28;20037;-77
2022/09/05 05:12:05;;;;;;;21.50;20.10;;;15.10;99.90;;;;;;5036476;28;20114;-76
2022/09/05 05:15:00;;;;;;;21.85;20.35;;;15.20;99.90;;;;;;5033345;28;20041;-77
2022/09/05 05:18:05;;;;;;;22.15;20.85;;;15.40;99.90;;;;;;5034252;28;20359;-76
2022/09/05 05:21:05;;;;;;;22.55;21.05;;;15.50;99.90;;;;;;5031576;28;20137;-77
2022/09/05 05:23:43;;;;;;;22.80;21.50;;;15.50;99.90;;;;;;5031727;28;20037;-77
2022/09/05 05:26:20;;;;;;;22.35;20.95;;;15.60;99.90;;;;;;5034816;28;20064;-78
2022/09/05 05:29:04;;;;;;;24.42;22.50;;;15.70;99.90;;;;;;5032546;28;20107;-77
2022/09/05 05:31:45;;;;;;;23.58;22.05;;;15.80;99.90;;;;;;5029053;28;20057;-77
2022/09/05 05:34:27;;;;;;;23.63;22.08;;;15.90;99.90;;;;;;5037091;28;20049;-77
2022/09/05 05:37:19;;;;;;;22.77;21.38;;;16.10;99.90;;;;;;5032655;28;20103;-77
2022/09/05 05:39:50;;;;;;;23.33;21.52;;;16.20;99.90;;;;;;5016172;28;20188;-77
2022/09/05 05:42:23;;;;;;;23.55;22.05;;;16.30;99.90;;;;;;5026945;28;20189;-75
2022/09/05 05:44:52;;;;;;;23.02;21.60;;;16.40;99.90;;;;;;5031191;28;20041;-75
2022/09/05 05:47:28;;;;;;;23.23;21.85;;;16.40;99.90;;;;;;5035443;28;20044;-76
2022/09/05 05:50:00;;;;;;;23.80;22.20;;;16.40;99.90;;;;;;5035278;28;20060;-77
2022/09/05 05:52:38;;;;;;;22.20;20.80;;;16.50;99.90;;;;;;5031337;28;20049;-76
2022/09/05 05:55:20;;;;;;;24.40;22.80;;;16.50;99.90;;;;;;5039933;28;20052;-77
2022/09/05 05:58:46;;;;;;;22.60;21.30;;;16.60;99.90;;;;;;5034018;28;20069;-77
2022/09/05 06:01:50;;;;;;;22.63;21.23;;;16.80;99.90;;;;;;5028792;28;20110;-78
2022/09/05 06:04:35;;;;;;;24.67;22.83;;;16.90;99.90;;;;;;5043481;28;20371;-78
2022/09/05 06:07:43;;;;;;;24.55;23.08;;;17.00;99.90;;;;;;5040804;28;20087;-77
2022/09/05 06:11:02;;;;;;;24.15;22.85;;;17.00;99.90;;;;;;5041893;28;20102;-77
2022/09/05 06:14:37;;;;;;;24.33;22.67;;;17.30;99.90;;;;;;5031331;28;20640;-77
2022/09/05 06:17:40;;;;;;;24.02;22.63;;;17.60;99.90;;;;;;5011933;28;20088;-76
2022/09/05 06:20:20;;;;;;;24.63;23.10;;;17.70;99.90;;;;;;5030489;28;20053;-77
2022/09/05 06:23:22;;;;;;;24.83;23.20;;;17.80;99.90;;;;;;5016882;28;20198;-76
2022/09/05 06:26:27;;;;;;;24.60;23.10;;;17.90;99.90;;;;;;5034249;28;20033;-77
2022/09/05 06:29:21;;;;;;;24.30;22.80;;;18.00;99.90;;;;;;5030670;28;20068;-77
2022/09/05 06:32:06;;;;;;;24.85;23.35;;;18.20;99.90;;;;;;5029817;28;20045;-77
2022/09/05 06:35:00;;;;;;;25.73;24.13;;;18.20;99.90;;;;;;5032899;28;20083;-77
2022/09/05 06:37:51;;;;;;;24.90;23.40;;;18.30;99.90;;;;;;5039184;28;20041;-76
2022/09/05 06:40:39;;;;;;;24.13;22.73;;;18.50;99.90;;;;;;5046578;28;20067;-77
2022/09/05 06:43:17;;;;;;;24.83;23.33;;;18.50;99.90;;;;;;5050735;28;20322;-77
2022/09/05 06:45:56;;;;;;;24.15;22.27;;;18.80;99.90;;;;;;5028409;28;20110;-77
2022/09/05 06:48:27;;;;;;;24.52;22.92;;;18.90;99.90;;;;;;5029017;28;20044;-77
2022/09/05 06:51:33;;;;;;;23.90;22.55;;;19.10;99.90;;;;;;5030769;28;20059;-77
2022/09/05 06:54:26;;;;;;;;;;;19.20;99.90;;;;;;5031248;28;20112;-77
2022/09/05 06:57:29;;;;;;;24.80;23.23;;;19.50;99.90;;;;;;5030827;28;19931;-77
2022/09/05 07:00:22;;;;;;;24.90;23.05;;;19.40;99.90;;;;;;5027068;28;20689;-76
2022/09/05 07:03:17;;;;;;;24.52;23.02;;;19.50;99.90;;;;;;5032047;28;20055;-77
2022/09/05 07:06:00;;;;;;;24.30;22.80;;;19.60;99.90;;;;;;5036849;28;20132;-76
2022/09/05 07:08:52;;;;;;;24.65;22.95;;;19.80;99.90;;;;;;5041136;28;20055;-77
2022/09/05 07:11:21;;;;;;;25.27;23.50;;;20.00;99.90;;;;;;5026105;28;20041;-77
2022/09/05 07:14:02;;;;;;;25.75;23.83;;;20.10;99.90;;;;;;5028985;28;20133;-77
2022/09/05 07:16:33;;;;;;;24.80;23.30;;;20.00;99.90;;;;;;5033722;28;20128;-77
2022/09/05 07:19:24;;;;;;;25.00;23.27;;;20.10;99.90;;;;;;5035842;28;20073;-77
2022/09/05 07:22:11;;;;;;;24.83;22.90;;;20.20;99.90;;;;;;5064067;28;20099;-77
2022/09/05 07:25:02;;;;;;;23.15;21.75;;;20.60;99.90;;;;;;5040209;28;20128;-77
2022/09/05 07:27:47;;;;;;;23.65;22.15;;;20.90;99.90;;;;;;5034854;28;20071;-77
2022/09/05 07:30:37;;;;;;;23.38;21.88;;;21.20;99.90;;;;;;5019418;28;20865;-77
2022/09/05 07:33:05;;;;;;;23.95;22.63;;;21.60;99.90;;;;;;5040820;28;20587;-78
2022/09/05 07:35:36;;;;;;;24.42;22.92;;;22.10;99.90;;;;;;5040727;28;20103;-77
2022/09/05 07:38:14;;;;;;;25.50;23.80;;;22.00;99.90;;;;;;5047962;28;20045;-78
2022/09/05 07:40:50;;;;;;;25.77;24.38;;;21.80;99.90;;;;;;5036301;28;20048;-78
2022/09/05 07:43:26;;;;;;;27.10;25.52;;;21.50;99.90;;;;;;5041425;28;20041;-75
2022/09/05 07:45:59;;;;;;;27.13;25.35;;;21.60;99.90;;;;;;5038042;28;20041;-78
2022/09/05 07:48:31;;;;;;;26.42;24.83;;;21.60;99.90;;;;;;5061822;22;20040;-74
2022/09/05 07:51:07;;;;;;;24.70;23.30;;;21.60;99.90;;;;;;4987828;28;20054;-73
2022/09/05 07:54:02;;;;;;;25.23;23.83;;;21.40;99.90;;;;;;5001893;28;20052;-74
2022/09/05 07:56:51;;;;;;;24.38;22.98;;;21.50;99.90;;;;;;5002489;28;20065;-73
2022/09/05 07:59:40;;;;;;;25.10;23.58;;;21.80;99.90;;;;;;4978454;28;21151;-70
2022/09/05 08:02:10;;;;;;;24.70;23.27;;;22.10;99.90;;;;;;4981136;28;20668;-75
2022/09/05 08:04:39;;;;;;;24.00;22.60;;;21.70;99.90;;;;;;5001371;28;20115;-71
2022/09/05 08:07:17;;;;;;;24.05;22.65;;;22.00;99.90;;;;;;4982832;28;20227;-75
2022/09/05 08:10:08;;;;;;;25.45;23.85;;;22.20;99.90;;;;;;5013504;28;20874;-74
2022/09/05 08:12:47;;;;;;;24.17;22.67;;;22.50;99.90;;;;;;5003812;28;20049;-74
2022/09/05 08:15:36;;;;;;;24.42;23.02;;;23.00;99.90;;;;;;5001888;28;20053;-72
2022/09/05 08:18:33;;;;;;;25.85;24.38;;;23.30;99.90;;;;;;5004199;28;20084;-74
2022/09/05 08:21:20;;;;;;;25.42;23.83;;;23.40;99.90;;;;;;5004958;28;20045;-71
2022/09/05 08:24:11;;;;;;;25.48;23.88;;;23.90;99.90;;;;;;5001538;28;20038;-71
2022/09/05 08:27:03;;;;;;;25.33;23.83;;;24.20;99.90;;;;;;4986192;28;20706;-73
2022/09/05 08:29:37;;;;;;;25.73;24.00;;;24.60;99.90;;;;;;4996229;28;20068;-76
2022/09/05 08:32:10;;;;;;;25.50;24.10;;;24.80;99.90;;;;;;5004907;28;20478;-77
2022/09/05 08:35:00;;;;;;;27.48;25.52;;;25.00;99.90;;;;;;5004563;28;20522;-75
2022/09/05 08:37:30;;;;;;;26.48;24.65;;;24.40;99.90;;;;;;5001725;28;20041;-74
2022/09/05 08:40:05;;;;;;;26.15;24.52;;;24.80;99.90;;;;;;5001089;28;20045;-75
2022/09/05 08:42:47;;;;;;;25.48;24.08;;;25.20;99.90;;;;;;5004681;28;20092;-73
2022/09/05 08:45:57;;;;;;;26.63;25.08;;;25.40;99.90;;;;;;4987343;28;20151;-74
2022/09/05 08:49:12;;;;;;;25.42;23.88;;;25.40;99.90;;;;;;4992377;28;20049;-72
2022/09/05 08:52:06;;;;;;;24.70;23.25;;;25.30;99.90;;;;;;4970772;28;20578;-71
2022/09/05 08:54:55;;;;;;;26.45;24.85;;;25.40;99.90;;;;;;4986103;28;20037;-72
2022/09/05 08:57:44;;;;;;;27.00;25.35;;;25.30;99.90;;;;;;4984940;28;20041;-76
2022/09/05 09:00:18;;;;;;;26.20;24.60;;;25.60;99.90;;;;;;4988800;28;20042;-72
2022/09/05 09:02:53;;;;;;;26.20;24.70;;;25.80;99.90;;;;;;4985118;28;20130;-72
2022/09/05 09:05:29;;;;;;;27.10;25.60;;;26.00;99.90;;;;;;5005246;28;20407;-71
2022/09/05 09:08:38;;;;;;;27.27;25.70;;;26.00;99.90;;;;;;4987285;28;20076;-74
2022/09/05 09:11:15;;;;;;;27.65;26.02;;;25.90;99.90;;;;;;5004827;28;20045;-72
2022/09/05 09:14:14;;;;;;;28.83;27.02;;;25.80;99.90;;;;;;5003009;28;20561;-73
2022/09/05 09:17:01;;;;;;;27.30;25.48;;;25.50;99.90;;;;;;4991851;28;20064;-75
2022/09/05 09:19:46;;;;;;;27.42;25.90;;;25.60;99.90;;;;;;4989318;28;20037;-72
2022/09/05 09:22:34;;;;;;;27.63;25.90;;;25.80;99.90;;;;;;4985033;28;20128;-74
2022/09/05 09:25:13;;;;;;;28.20;26.60;;;25.30;99.90;;;;;;4986247;28;20050;-72
2022/09/05 09:28:02;;;;;;;28.02;26.23;;;25.10;99.90;;;;;;4984465;28;20176;-74
2022/09/05 09:31:03;;;;;;;27.10;25.40;;;25.30;99.90;;;;;;5002755;28;20050;-74
2022/09/05 09:33:45;;;;;;;27.30;25.60;;;25.40;99.90;;;;;;4986645;28;20053;-74
2022/09/05 09:36:38;;;;;;;26.50;25.10;;;25.70;99.90;;;;;;4981773;28;20046;-72
2022/09/05 09:39:25;;;;;;;26.90;25.40;;;25.80;99.90;;;;;;4987720;28;21114;-73
2022/09/05 09:42:32;;;;;;;27.25;25.65;;;26.20;99.90;;;;;;4986451;28;20987;-70
2022/09/05 09:45:05;;;;;;;27.90;26.10;;;25.70;99.90;;;;;;4975317;28;20463;-74
2022/09/05 09:48:17;;;;;;;27.02;25.33;;;25.90;99.90;;;;;;5001545;28;20045;-73
2022/09/05 09:50:56;;;;;;;27.20;25.60;;;26.50;99.90;;;;;;4989963;28;20098;-73
2022/09/05 09:53:26;;;;;;;27.75;26.15;;;26.60;99.90;;;;;;4967390;28;20037;-73
2022/09/05 09:56:27;;;;;;;26.63;25.10;;;26.70;99.90;;;;;;4985585;28;20278;-74
2022/09/05 09:59:07;;;;;;;27.27;25.77;;;27.00;99.90;;;;;;4999839;28;20118;-74
2022/09/05 10:02:06;;;;;;;27.73;26.08;;;27.30;99.90;;;;;;4981467;28;20048;-72
2022/09/05 10:05:36;;;;;;;28.42;26.50;;;27.50;99.90;;;;;;5002940;28;20044;-73
2022/09/05 10:08:57;;;;;;;28.95;27.13;;;28.00;99.90;;;;;;5008242;28;20054;-73
2022/09/05 10:11:59;;;;;;;28.42;26.55;;;27.90;99.90;;;;;;4982728;28;20053;-74
2022/09/05 10:14:55;;;;;;;28.10;26.30;;;27.60;99.90;;;;;;5000166;28;20045;-75
2022/09/05 10:17:51;;;;;;;28.88;27.02;;;27.60;99.90;;;;;;4980627;28;20224;-74
2022/09/05 10:20:38;;;;;;;29.13;27.40;;;26.80;99.90;;;;;;5001716;28;20053;-72
2022/09/05 10:23:23;;;;;;;29.55;27.75;;;26.10;99.90;;;;;;5003136;28;20042;-73
2022/09/05 10:26:15;;;;;;;28.15;26.55;;;26.70;99.90;;;;;;4997940;28;20467;-71
2022/09/05 10:29:05;;;;;;;28.65;26.98;;;27.20;99.90;;;;;;4989514;28;20041;-74
2022/09/05 10:31:57;;;;;;;28.73;26.92;;;27.50;99.90;;;;;;4989566;28;20415;-74
2022/09/05 10:34:46;;;;;;;29.20;27.48;;;27.30;99.90;;;;;;5003974;28;20052;-70
2022/09/05 10:37:53;;;;;;;29.48;27.67;;;27.50;99.90;;;;;;4983888;28;20126;-76
2022/09/05 10:40:24;;;;;;;29.95;28.05;;;27.30;99.90;;;;;;4981796;28;20054;-78
2022/09/05 10:42:57;;;;;;;29.35;27.27;;;27.40;99.90;;;;;;5003385;28;20662;-75
2022/09/05 10:45:57;;;;;;;29.20;27.40;;;27.70;99.90;;;;;;4968057;28;20169;-74
2022/09/05 10:48:33;;;;;;;29.77;28.00;;;27.80;99.90;;;;;;4999456;28;20140;-75
2022/09/05 10:51:52;;;;;;;30.00;28.10;;;27.90;99.90;;;;;;5002361;28;20880;-77
2022/09/05 10:54:41;;;;;;;31.65;29.75;;;27.60;99.90;;;;;;4966992;28;20048;-75
2022/09/05 10:57:29;;;;;;;30.35;28.38;;;27.50;99.90;;;;;;4985549;28;20041;-73
2022/09/05 11:00:02;;;;;;;28.33;26.58;;;27.10;99.90;;;;;;4999050;28;20061;-74
2022/09/05 11:02:56;;;;;;;30.60;28.70;;;26.80;99.90;;;;;;4988391;28;20077;-75
2022/09/05 11:05:28;;;;;;;;;;;26.90;99.90;;;;;;5003894;28;20114;-74
2022/09/05 11:08:23;;;;;;;31.63;29.63;;;27.40;99.90;;;;;;4984722;28;20009;-73
2022/09/05 11:11:11;;;;;;;30.93;28.83;;;27.50;99.90;;;;;;5001903;28;20041;-78
2022/09/05 11:14:18;;;;;;;30.20;28.30;;;27.80;99.90;;;;;;4971991;28;20793;-78
2022/09/05 11:16:59;;;;;;;30.52;28.45;;;27.80;99.90;;;;;;5001852;28;20291;-73
2022/09/05 11:19:32;;;;;;;30.10;28.17;;;28.30;99.90;;;;;;4984917;28;20049;-72
2022/09/05 11:22:03;;;;;;;30.67;28.77;;;28.80;99.90;;;;;;4993838;28;20043;-73
2022/09/05 11:24:57;;;;;;;30.75;28.75;;;28.90;99.80;;;;;;4985621;28;20465;-72
2022/09/05 11:27:30;;;;;;;;;;;28.70;99.60;;;;;;4986020;28;20076;-73
2022/09/05 11:30:05;;;;;;;30.67;28.77;;;28.90;98.50;;;;;;4983977;28;19928;-73
2022/09/05 11:33:16;;;;;;;31.52;29.52;;;29.00;98.80;;;;;;4984982;28;20103;-75
2022/09/05 11:36:15;;;;;;;30.80;28.98;;;29.30;98.30;;;;;;4951741;28;20069;-73
2022/09/05 11:39:34;;;;;;;31.52;29.63;;;29.50;99.90;;;;;;4987829;28;20037;-74
2022/09/05 11:42:27;;;;;;;32.08;30.08;;;29.20;99.30;;;;;;4960617;28;20045;-75
2022/09/05 11:45:30;;;;;;;31.42;29.42;;;28.90;99.80;;;;;;5011398;28;20050;-75
2022/09/05 11:48:18;;;;;;;31.88;29.75;;;28.90;99.40;;;;;;5005079;28;20442;-76
2022/09/05 11:51:12;;;;;;;30.52;28.52;;;29.00;99.90;;;;;;4974681;28;20042;-73
2022/09/05 11:53:59;;;;;;;32.80;30.55;;;29.30;98.80;;;;;;4986180;28;20049;-73
2022/09/05 11:57:03;;;;;;;31.55;29.52;;;29.30;98.40;;;;;;5005336;28;20041;-75
2022/09/05 12:00:17;;;;;;;32.53;30.42;;;29.30;98.50;;;;;;5003816;28;20222;-75
2022/09/05 12:03:21;;;;;;;30.90;28.90;;;29.10;98.40;;;;;;4989047;28;20046;-77
2022/09/05 12:06:55;;;;;;;30.85;28.83;;;29.20;98.10;;;;;;5005891;28;20335;-76
2022/09/05 12:09:34;;;;;;;30.05;28.05;;;29.10;98.40;;;;;;5007012;28;20045;-74
2022/09/05 12:12:34;;;;;;;30.80;28.90;;;29.40;98.40;;;;;;5004014;28;20488;-76
2022/09/05 12:15:22;;;;;;;30.90;28.77;;;29.60;97.10;;;;;;5002962;28;20034;-75
2022/09/05 12:18:13;;;;;;;32.00;29.98;;;29.70;98.20;;;;;;5003762;28;20049;-76
2022/09/05 12:21:27;;;;;;;29.33;27.48;;;29.30;98.70;;;;;;4989956;28;20567;-72
2022/09/05 12:24:06;;;;;;;30.60;28.70;;;29.00;98.80;;;;;;4984915;28;20052;-75
2022/09/05 12:27:03;;;;;;;30.77;28.77;;;28.60;99.00;;;;;;5004286;28;20037;-75
2022/09/05 12:29:58;;;;;;;30.52;28.52;;;28.60;99.90;;;;;;5006350;28;20276;-75
2022/09/05 12:32:26;;;;;;;29.73;27.83;;;28.50;99.10;;;;;;4982252;28;20136;-75
2022/09/05 12:35:40;;;;;;;30.20;28.20;;;28.60;99.00;;;;;;4983840;28;20091;-77
2022/09/05 12:38:50;;;;;;;30.23;28.27;;;28.60;99.20;;;;;;4998654;28;20562;-76
2022/09/05 12:41:43;;;;;;;31.65;29.65;;;28.20;99.20;;;;;;5002793;28;20366;-75
2022/09/05 12:44:53;;;;;;;31.42;29.40;;;28.40;98.80;;;;;;4984332;28;20256;-75
2022/09/05 12:47:26;;;;;;;32.67;30.48;;;28.20;99.20;;;;;;5002485;28;20042;-74
2022/09/05 12:50:05;;;;;;;31.60;29.70;;;27.70;99.90;;;;;;5001853;28;20034;-72
2022/09/05 12:52:48;;;;;;;33.00;30.90;;;27.80;99.90;;;;;;5001834;28;20073;-77
2022/09/05 12:55:36;;;;;;;31.17;29.17;;;28.20;99.40;;;;;;5004563;28;20568;-74
2022/09/05 12:58:15;;;;;;;30.55;28.55;;;28.70;98.50;;;;;;5003324;28;20658;-76
2022/09/05 13:01:17;;;;;;;29.45;27.75;;;28.70;98.80;;;;;;4998869;28;20111;-76
2022/09/05 13:04:20;;;;;;;30.55;28.63;;;28.50;99.10;;;;;;4970368;28;20124;-78
2022/09/05 13:07:08;;;;;;;29.77;27.80;;;28.70;99.00;;;;;;4988449;28;20038;-73
2022/09/05 13:09:50;;;;;;;31.23;29.42;;;28.40;99.70;;;;;;4998107;28;20061;-74
2022/09/05 13:12:47;;;;;;;30.85;28.95;;;27.60;99.80;;;;;;4986525;28;20049;-75
2022/09/05 13:15:38;;;;;;;31.20;29.13;;;27.60;99.50;;;;;;5060450;23;20041;-74
2022/09/05 13:18:09;;;;;;;30.23;28.42;;;27.50;99.80;;;;;;5015572;28;20049;-74
2022/09/05 13:20:50;;;;;;;31.80;29.90;;;27.70;99.30;;;;;;5034638;28;20060;-74
2022/09/05 13:23:32;;;;;;;29.98;28.27;;;27.60;98.90;;;;;;5036709;28;20437;-74
2022/09/05 13:26:09;;;;;;;32.67;30.50;;;27.60;99.20;;;;;;5014607;28;20187;-74
2022/09/05 13:28:51;;;;;;;30.52;28.42;;;27.70;99.40;;;;;;5017596;28;20041;-76
2022/09/05 13:31:39;;;;;;;30.52;28.83;;;28.00;99.20;;;;;;5011209;28;20116;-76
2022/09/05 13:34:35;;;;;;;29.25;27.25;;;28.50;99.00;;;;;;5014523;28;20088;-76
2022/09/05 13:37:28;;;;;;;29.67;27.90;;;28.10;97.90;;;;;;5013692;28;20045;-75
2022/09/05 13:40:23;;;;;;;30.20;28.30;;;28.10;98.30;;;;;;5014947;28;20241;-76
2022/09/05 13:43:11;;;;;;;30.58;28.73;;;28.30;98.30;;;;;;5012877;28;20048;-73
2022/09/05 13:45:44;;;;;;;30.98;28.95;;;28.60;98.30;;;;;;5015144;28;20072;-74
2022/09/05 13:48:28;;;;;;;31.48;29.58;;;28.40;98.30;;;;;;5014725;28;20424;-76
2022/09/05 13:51:28;;;;;;;31.10;29.08;;;28.50;97.90;;;;;;5011969;28;20041;-77
2022/09/05 13:54:18;;;;;;;30.77;28.75;;;28.90;98.10;;;;;;4996009;28;20119;-74
2022/09/05 13:57:04;;;;;;;29.50;27.67;;;29.20;97.90;;;;;;5011146;28;20279;-75
2022/09/05 13:59:39;;;;;;;30.00;28.23;;;29.10;97.80;;;;;;5011827;28;20295;-74
2022/09/05 14:02:52;;;;;;;30.33;28.50;;;29.00;97.40;;;;;;5012849;28;20127;-74
2022/09/05 14:05:57;;;;;;;31.17;29.15;;;29.10;97.80;;;;;;4971134;28;20794;-74
2022/09/05 14:08:33;;;;;;;31.40;29.20;;;29.20;97.10;;;;;;5012605;28;20352;-74
2022/09/05 14:11:39;;;;;;;32.80;30.92;;;29.10;96.40;;;;;;5013049;28;20537;-74
2022/09/05 14:14:16;;;;;;;30.38;28.67;;;29.00;96.60;;;;;;4998040;28;20553;-74
2022/09/05 14:17:10;;;;;;;31.27;29.17;;;28.80;96.80;;;;;;5011661;28;20049;-74
2022/09/05 14:22:58;;;;;;;30.33;28.42;;;28.50;98.30;;;;;;5016904;28;20057;-75
2022/09/05 14:25:35;;;;;;;29.00;27.20;;;29.10;96.90;;;;;;5010600;28;20041;-75
2022/09/05 14:28:04;;;;;;;30.13;28.33;;;29.40;96.70;;;;;;5014833;28;20053;-75